Time;durP1;ratioP1;P1;durP2;ratioP2;P2;SDS_P1;SDS_P2;PMS_P1;PMS_P2;Temp;Humidity;BMP_temperature;BMP_pressure;BME280_temperature;BME280_humidity;BME280_pressure;Samples;Min_cycle;Max_cycle;Signal;HPM_P1;HPM_P2
2023/04/20 00:01:57;;;;;;;11.00;6.95;;;;;;;12.74;100.00;100049.81;4978962;28;20034;-86
2023/04/20 00:04:23;;;;;;;12.00;7.30;;;;;;;12.90;100.00;100050.41;4978497;28;20486;-86
2023/04/20 00:06:52;;;;;;;9.07;7.10;;;;;;;12.79;100.00;100047.44;4978608;28;20089;-87
2023/04/20 00:09:18;;;;;;;14.63;7.57;;;;;;;12.91;100.00;100041.41;4979311;28;20042;-85
2023/04/20 00:11:44;;;;;;;10.95;7.35;;;;;;;12.82;100.00;100036.41;4979120;28;20055;-86
2023/04/20 00:14:19;;;;;;;11.30;7.07;;;;;;;12.75;100.00;100041.66;4983258;28;20042;-85
2023/04/20 00:16:48;;;;;;;9.80;6.63;;;;;;;12.72;100.00;100034.06;4980464;28;20047;-86
2023/04/20 00:19:13;;;;;;;13.52;7.18;;;;;;;12.72;100.00;100030.56;4985723;28;20445;-84
2023/04/20 00:21:39;;;;;;;12.93;6.93;;;;;;;12.62;100.00;100036.19;4989697;28;20074;-85
2023/04/20 00:24:06;;;;;;;11.75;6.88;;;;;;;12.76;100.00;100030.00;4987503;28;20110;-84
2023/04/20 00:26:37;;;;;;;11.32;6.47;;;;;;;12.79;100.00;100028.81;4982280;28;20045;-85
2023/04/20 00:29:03;;;;;;;12.63;7.25;;;;;;;12.80;100.00;100033.94;4978976;28;20031;-87
2023/04/20 00:31:41;;;;;;;13.65;6.65;;;;;;;12.88;100.00;100025.84;4981548;28;20073;-86
2023/04/20 00:34:06;;;;;;;11.40;6.75;;;;;;;12.93;100.00;100036.72;4979988;28;20031;-87
2023/04/20 00:36:33;;;;;;;9.00;5.95;;;;;;;12.97;100.00;100037.19;4980883;28;20122;-88
2023/04/20 00:38:58;;;;;;;8.57;6.20;;;;;;;13.10;100.00;100033.84;4982862;28;20121;-85
2023/04/20 00:41:30;;;;;;;8.98;5.90;;;;;;;12.95;100.00;100037.38;4982299;28;20125;-84
2023/04/20 00:44:01;;;;;;;8.18;5.95;;;;;;;13.11;100.00;100035.50;4979376;28;20053;-86
2023/04/20 00:46:26;;;;;;;11.05;6.80;;;;;;;13.08;100.00;100033.19;4980850;28;20042;-85
2023/04/20 00:48:53;;;;;;;8.40;5.82;;;;;;;13.07;100.00;100029.72;4976667;28;20031;-87
2023/04/20 00:51:23;;;;;;;10.38;6.57;;;;;;;13.10;100.00;100028.53;4975070;28;20038;-86
2023/04/20 00:53:48;;;;;;;12.27;6.00;;;;;;;12.92;100.00;100032.44;4975985;28;20054;-86
2023/04/20 00:56:15;;;;;;;7.82;6.05;;;;;;;13.06;100.00;100022.72;4979134;28;20355;-86
2023/04/20 00:58:46;;;;;;;9.48;6.10;;;;;;;13.03;100.00;100022.28;4975467;28;20035;-87
2023/04/20 01:01:16;;;;;;;12.02;7.13;;;;;;;13.01;100.00;100019.00;4977182;28;20035;-85
2023/04/20 01:03:44;;;;;;;11.50;5.95;;;;;;;12.91;100.00;100016.66;4977577;28;20128;-87
2023/04/20 01:06:10;;;;;;;10.75;5.95;;;;;;;12.74;100.00;100013.41;4975757;28;20053;-86
2023/04/20 01:08:47;;;;;;;8.43;6.05;;;;;;;12.60;100.00;100008.97;4978264;28;20038;-83
2023/04/20 01:11:13;;;;;;;11.60;6.15;;;;;;;12.61;100.00;100012.44;4980495;28;20093;-86
2023/04/20 01:13:48;;;;;;;12.88;6.72;;;;;;;12.62;100.00;100014.94;4981054;28;20522;-87
2023/04/20 01:16:21;;;;;;;9.85;6.22;;;;;;;12.63;100.00;100007.75;4979829;28;20039;-85
2023/04/20 01:18:49;;;;;;;8.93;6.68;;;;;;;12.71;100.00;100016.44;4981575;28;20058;-85
2023/04/20 01:21:16;;;;;;;9.93;6.30;;;;;;;12.86;100.00;100011.06;4979767;28;20027;-85
2023/04/20 01:23:42;;;;;;;10.95;6.65;;;;;;;12.81;100.00;100008.16;4976188;28;20445;-86
2023/04/20 01:26:10;;;;;;;11.52;6.63;;;;;;;12.72;100.00;100009.31;4979060;28;20030;-86
2023/04/20 01:28:37;;;;;;;11.85;6.90;;;;;;;12.70;100.00;100009.47;4960867;28;20047;-87
2023/04/20 01:31:05;;;;;;;11.73;7.55;;;;;;;12.43;100.00;100010.19;4979542;28;20042;-87
2023/04/20 01:33:30;;;;;;;12.63;7.80;;;;;;;12.37;100.00;100010.94;4979590;28;20035;-87
2023/04/20 01:35:56;;;;;;;13.35;8.07;;;;;;;12.37;100.00;100016.25;4977792;28;20037;-85
2023/04/20 01:38:25;;;;;;;11.70;8.48;;;;;;;12.08;100.00;100013.63;4975536;28;20046;-85
2023/04/20 01:40:53;;;;;;;16.63;8.23;;;;;;;11.87;100.00;100007.22;4976826;28;20134;-88
2023/04/20 01:43:19;;;;;;;13.48;8.35;;;;;;;11.87;100.00;100011.69;4975689;28;20061;-85
2023/04/20 01:45:45;;;;;;;15.82;8.65;;;;;;;11.88;100.00;100013.34;4973810;28;20054;-86
2023/04/20 01:48:11;;;;;;;17.55;8.68;;;;;;;11.83;100.00;100018.41;4980980;28;20054;-87
2023/04/20 01:50:36;;;;;;;17.13;8.80;;;;;;;11.70;100.00;100007.56;4977330;28;20050;-85
2023/04/20 01:53:02;;;;;;;13.90;8.35;;;;;;;11.66;100.00;100003.63;4980232;28;20027;-85
2023/04/20 01:55:27;;;;;;;13.35;8.82;;;;;;;11.75;100.00;100003.38;4978136;28;20367;-87
2023/04/20 01:57:53;;;;;;;24.35;8.35;;;;;;;11.73;100.00;99997.41;4979434;28;20529;-88
2023/04/20 02:00:19;;;;;;;15.15;8.13;;;;;;;11.85;100.00;100003.94;4975090;28;20158;-87
2023/04/20 02:02:47;;;;;;;13.00;7.97;;;;;;;11.70;100.00;99997.78;4976991;28;20038;-87
2023/04/20 02:05:14;;;;;;;12.15;8.27;;;;;;;11.78;100.00;99997.69;4975663;28;20027;-88
2023/04/20 02:07:40;;;;;;;11.50;7.88;;;;;;;11.83;100.00;100003.28;4979617;28;20046;-87
2023/04/20 02:10:07;;;;;;;14.18;7.97;;;;;;;11.71;100.00;99994.13;4981348;28;20090;-87
2023/04/20 02:12:32;;;;;;;11.35;7.78;;;;;;;11.77;100.00;99993.38;4979851;28;20034;-85
2023/04/20 02:14:58;;;;;;;13.32;7.63;;;;;;;11.84;100.00;99985.50;4981453;28;20650;-88
2023/04/20 02:17:23;;;;;;;11.90;7.38;;;;;;;11.93;100.00;99987.09;4979516;28;20111;-86
2023/04/20 02:19:49;;;;;;;11.73;7.18;;;;;;;11.99;100.00;99991.66;4985143;28;20047;-90
2023/04/20 02:22:15;;;;;;;12.63;6.70;;;;;;;11.95;100.00;99986.88;4980235;28;20027;-85
2023/04/20 02:24:42;;;;;;;10.68;7.30;;;;;;;11.98;100.00;99978.56;4980831;28;20477;-87
2023/04/20 02:27:09;;;;;;;11.82;6.70;;;;;;;11.86;100.00;99981.66;4981003;28;20114;-87
2023/04/20 02:29:38;;;;;;;16.02;7.07;;;;;;;11.89;100.00;99981.31;4982008;28;20109;-91
2023/04/20 02:32:04;;;;;;;8.68;6.60;;;;;;;11.94;100.00;99980.75;4979154;28;20098;-86
2023/04/20 02:34:35;;;;;;;8.40;6.28;;;;;;;11.82;100.00;99974.25;4979769;28;20138;-89
2023/04/20 02:37:01;;;;;;;13.55;7.20;;;;;;;11.68;100.00;99983.84;4981202;28;20347;-85
2023/04/20 02:39:26;;;;;;;8.77;6.75;;;;;;;11.66;100.00;99967.28;4981946;28;20035;-86
2023/04/20 02:41:53;;;;;;;10.30;6.57;;;;;;;11.58;100.00;99966.53;4984449;28;20057;-86
2023/04/20 02:44:19;;;;;;;12.48;7.53;;;;;;;11.60;100.00;99970.63;4982170;28;20041;-86
2023/04/20 02:46:46;;;;;;;8.35;6.28;;;;;;;11.60;100.00;99970.63;4986172;28;20031;-86
2023/04/20 02:49:12;;;;;;;11.85;6.53;;;;;;;11.47;100.00;99970.44;4980492;28;20054;-86
2023/04/20 02:51:41;;;;;;;10.13;7.57;;;;;;;11.49;100.00;99973.75;4980739;28;20039;-86
2023/04/20 02:54:09;;;;;;;11.98;7.78;;;;;;;11.59;100.00;99976.16;4982211;28;20039;-86
2023/04/20 02:56:35;;;;;;;13.07;7.97;;;;;;;11.59;100.00;99978.78;4980822;28;20069;-86
2023/04/20 02:59:04;;;;;;;13.35;8.35;;;;;;;11.35;100.00;99971.91;4986527;28;20038;-86
2023/04/20 03:02:05;;;;;;;12.77;7.80;;;;;;;11.21;100.00;99973.50;4969271;28;20122;-87
2023/04/20 03:04:30;;;;;;;13.82;8.35;;;;;;;11.11;100.00;99969.47;4985433;28;20050;-86
2023/04/20 03:07:06;;;;;;;17.55;7.72;;;;;;;10.98;100.00;99963.94;4982725;28;20043;-87
2023/04/20 03:09:38;;;;;;;10.82;7.88;;;;;;;10.87;100.00;99968.66;4982514;28;20042;-86
2023/04/20 03:12:22;;;;;;;16.83;9.80;;;;;;;10.75;100.00;99967.44;4984796;28;20074;-84
2023/04/20 03:15:00;;;;;;;12.73;9.02;;;;;;;10.85;100.00;99968.00;4989252;28;20514;-87
2023/04/20 03:17:40;;;;;;;14.00;9.02;;;;;;;10.89;100.00;99966.66;4988658;28;20038;-86
2023/04/20 03:20:07;;;;;;;18.15;9.25;;;;;;;10.73;100.00;99966.78;4985553;28;20038;-88
2023/04/20 03:22:33;;;;;;;14.43;9.65;;;;;;;10.46;100.00;99969.94;4984525;28;20034;-84
2023/04/20 03:25:00;;;;;;;14.55;8.68;;;;;;;10.47;100.00;99971.59;4966985;28;20537;-86
2023/04/20 03:27:58;;;;;;;13.65;9.15;;;;;;;10.70;100.00;99967.16;4978375;28;20074;-87
2023/04/20 03:30:25;;;;;;;15.68;9.00;;;;;;;10.86;100.00;99969.69;4966949;28;20035;-89
2023/04/20 03:32:59;;;;;;;13.40;8.60;;;;;;;10.90;100.00;99968.28;4984138;28;20074;-87
2023/04/20 03:35:26;;;;;;;12.63;8.52;;;;;;;11.02;100.00;99973.19;4977777;28;20126;-86
2023/04/20 03:37:54;;;;;;;14.02;9.23;;;;;;;11.01;100.00;99963.56;4949995;29;20058;-88
2023/04/20 03:40:20;;;;;;;15.85;9.38;;;;;;;10.93;100.00;99964.47;4948461;29;20042;-86
2023/04/20 03:42:45;;;;;;;15.13;10.05;;;;;;;10.70;100.00;99961.84;4966042;28;20031;-87
2023/04/20 03:45:12;;;;;;;14.52;9.43;;;;;;;10.71;100.00;99955.53;4965227;29;20055;-88
2023/04/20 03:47:38;;;;;;;16.83;9.35;;;;;;;10.64;100.00;99956.44;4969094;29;20073;-87
2023/04/20 03:50:04;;;;;;;15.55;10.30;;;;;;;10.62;100.00;99953.94;4970129;29;20036;-87
2023/04/20 03:52:30;;;;;;;18.05;10.55;;;;;;;10.56;100.00;99952.00;4971430;28;20036;-87
2023/04/20 03:54:57;;;;;;;14.27;9.88;;;;;;;10.62;100.00;99958.41;4970427;29;20067;-86
2023/04/20 03:57:23;;;;;;;12.45;10.10;;;;;;;10.78;100.00;99956.47;4966093;28;20368;-89
2023/04/20 03:59:48;;;;;;;20.23;12.25;;;;;;;10.74;100.00;99954.34;4965360;28;20039;-86
2023/04/20 04:02:17;;;;;;;15.10;10.90;;;;;;;10.83;100.00;99962.06;4962077;29;20406;-86
2023/04/20 04:04:45;;;;;;;18.58;12.95;;;;;;;10.87;100.00;99963.34;4961831;29;20032;-87
2023/04/20 04:07:13;;;;;;;19.95;12.98;;;;;;;10.68;100.00;99961.19;4963877;28;20032;-85
2023/04/20 04:09:41;;;;;;;18.95;13.50;;;;;;;10.72;100.00;99953.69;4964028;29;20039;-87
2023/04/20 04:12:08;;;;;;;21.13;13.63;;;;;;;10.65;100.00;99953.59;4962224;29;20502;-86
2023/04/20 04:14:35;;;;;;;19.52;13.55;;;;;;;10.60;100.00;99955.13;4949605;29;20100;-88
2023/04/20 04:17:01;;;;;;;17.45;13.48;;;;;;;10.66;100.00;99965.00;4966516;28;20103;-86
2023/04/20 04:19:29;;;;;;;18.55;13.13;;;;;;;10.74;100.00;99963.13;4954891;29;20446;-85
2023/04/20 04:21:55;;;;;;;17.27;12.88;;;;;;;10.71;100.00;99954.69;4973831;28;20035;-86
2023/04/20 04:24:21;;;;;;;24.27;12.98;;;;;;;10.56;100.00;99957.28;4971051;29;20095;-88
2023/04/20 04:27:33;;;;;;;20.50;13.32;;;;;;;10.55;100.00;99960.94;4965734;28;20055;-87
2023/04/20 04:30:05;;;;;;;;;;;;;;;10.61;100.00;99965.53;4970265;28;20067;-87
2023/04/20 04:32:35;;;;;;;18.50;12.90;;;;;;;10.63;100.00;99958.25;4971135;28;19965;-86
2023/04/20 04:35:03;;;;;;;20.00;13.50;;;;;;;10.59;100.00;99954.28;4969322;28;20095;-84
2023/04/20 04:37:28;;;;;;;19.48;14.73;;;;;;;10.62;100.00;99963.72;4972617;29;20058;-92
2023/04/20 04:40:13;;;;;;;20.17;14.50;;;;;;;10.47;100.00;99963.66;4970724;29;20047;-87
2023/04/20 04:42:48;;;;;;;22.70;15.07;;;;;;;10.39;100.00;99968.97;4966961;29;20043;-86
2023/04/20 04:45:14;;;;;;;21.25;15.43;;;;;;;10.46;100.00;99969.94;4963034;29;20396;-89
2023/04/20 04:47:41;;;;;;;29.02;16.15;;;;;;;10.63;100.00;99971.50;4947116;29;20390;-88
2023/04/20 04:50:09;;;;;;;20.42;15.57;;;;;;;10.56;100.00;99970.53;4964593;28;20035;-87
2023/04/20 04:52:36;;;;;;;21.77;15.10;;;;;;;10.60;100.00;99977.16;4947468;29;20043;-87
2023/04/20 04:55:02;;;;;;;19.13;14.40;;;;;;;10.67;100.00;99977.28;4967881;28;20040;-86
2023/04/20 04:57:28;;;;;;;20.88;14.57;;;;;;;10.77;100.00;99972.56;4968956;28;20046;-87
2023/04/20 04:59:54;;;;;;;21.52;14.27;;;;;;;10.64;100.00;99981.06;4967764;28;20049;-88
2023/04/20 05:02:20;;;;;;;23.15;14.45;;;;;;;10.66;100.00;99979.09;4971785;28;20051;-87
2023/04/20 05:04:48;;;;;;;19.30;13.38;;;;;;;10.82;100.00;99976.31;4971213;28;20036;-88
2023/04/20 05:07:16;;;;;;;19.73;13.85;;;;;;;10.71;100.00;99976.72;4961989;29;20090;-88
2023/04/20 05:09:41;;;;;;;24.65;13.90;;;;;;;10.61;100.00;99978.78;4960482;28;20046;-90
2023/04/20 05:12:07;;;;;;;20.73;14.45;;;;;;;10.56;100.00;99972.38;4963842;29;20039;-89
2023/04/20 05:14:32;;;;;;;19.63;14.85;;;;;;;10.59;100.00;99974.66;4963250;29;20095;-92
2023/04/20 05:16:59;;;;;;;23.58;13.80;;;;;;;10.48;100.00;99978.53;4970492;28;20041;-88
2023/04/20 05:19:24;;;;;;;18.48;13.57;;;;;;;10.54;100.00;99969.88;4977020;28;20070;-91
2023/04/20 05:21:50;;;;;;;20.73;13.70;;;;;;;10.40;100.00;99970.66;4978309;28;20035;-86
2023/04/20 05:24:16;;;;;;;18.90;14.07;;;;;;;10.32;100.00;99979.44;4978428;28;20050;-88
2023/04/20 05:26:42;;;;;;;24.58;14.18;;;;;;;10.20;100.00;99970.25;4977820;28;20095;-89
2023/04/20 05:29:08;;;;;;;20.55;14.35;;;;;;;10.13;100.00;99976.38;4974808;28;20046;-89
2023/04/20 05:31:34;;;;;;;23.17;14.57;;;;;;;10.07;100.00;99974.41;4968416;28;20027;-87
2023/04/20 05:34:01;;;;;;;23.23;15.82;;;;;;;10.26;100.00;99984.63;4965502;29;20040;-86
2023/04/20 05:36:29;;;;;;;22.17;15.23;;;;;;;10.21;100.00;99986.94;4963671;28;20039;-87
2023/04/20 05:38:55;;;;;;;22.40;15.70;;;;;;;10.21;100.00;99984.28;4961238;28;20043;-90
2023/04/20 05:41:26;;;;;;;26.00;15.02;;;;;;;10.25;100.00;99982.97;4961681;28;20035;-86
2023/04/20 05:43:55;;;;;;;26.48;15.43;;;;;;;10.30;100.00;99991.22;4962636;28;20062;-87
2023/04/20 05:46:21;;;;;;;24.58;15.48;;;;;;;10.35;100.00;99991.50;4964278;28;20039;-89
2023/04/20 05:48:48;;;;;;;23.35;14.80;;;;;;;10.51;100.00;99994.06;4963815;29;20047;-90
2023/04/20 05:51:17;;;;;;;22.58;14.75;;;;;;;10.41;100.00;99998.75;4966435;29;20071;-89
2023/04/20 05:53:43;;;;;;;21.83;14.20;;;;;;;10.57;100.00;100001.31;4973928;29;20054;-91
2023/04/20 05:56:13;;;;;;;19.13;14.02;;;;;;;10.66;100.00;99991.50;4974128;29;20031;-91
2023/04/20 05:58:40;;;;;;;26.30;14.77;;;;;;;10.61;100.00;99996.50;4974048;29;20031;-93
2023/04/20 06:01:08;;;;;;;19.95;14.18;;;;;;;10.54;100.00;99999.03;4976360;29;20042;-94
2023/04/20 06:03:35;;;;;;;19.58;13.70;;;;;;;10.49;100.00;100006.69;4976059;28;20039;-94
2023/04/20 06:06:09;;;;;;;22.33;14.55;;;;;;;10.50;100.00;100000.41;4959463;29;20058;-92
2023/04/20 06:08:37;;;;;;;26.65;13.70;;;;;;;10.64;100.00;99993.53;4956327;29;20107;-91
2023/04/20 06:11:04;;;;;;;22.05;13.77;;;;;;;10.78;100.00;99990.09;4969834;28;20035;-92
2023/04/20 06:13:39;;;;;;;25.38;13.93;;;;;;;10.77;100.00;100001.72;4971797;29;20043;-91
2023/04/20 06:16:14;;;;;;;22.90;13.85;;;;;;;10.61;100.00;99994.69;4487459;23;15220714;-92
2023/04/20 06:18:41;;;;;;;20.90;14.40;;;;;;;10.55;100.00;99990.09;5019010;23;20047;-92
2023/04/20 06:21:23;;;;;;;23.25;14.18;;;;;;;10.54;100.00;99995.56;5079178;23;20043;-92
2023/04/20 06:23:49;;;;;;;20.30;14.07;;;;;;;10.59;100.00;99990.56;4985857;28;20100;-86
2023/04/20 06:26:14;;;;;;;22.40;14.23;;;;;;;10.60;100.00;99985.09;4984521;28;20059;-91
2023/04/20 06:28:40;;;;;;;21.45;13.63;;;;;;;10.76;100.00;99994.75;4983217;28;20167;-87
2023/04/20 06:31:06;;;;;;;22.50;13.77;;;;;;;10.56;100.00;99994.38;4982709;28;20058;-86
2023/04/20 06:33:32;;;;;;;19.25;12.73;;;;;;;10.58;100.00;100000.31;4985371;28;20162;-87
2023/04/20 06:35:58;;;;;;;21.63;13.25;;;;;;;10.65;100.00;99998.63;4981159;28;20604;-89
2023/04/20 06:38:26;;;;;;;21.15;13.65;;;;;;;10.69;100.00;99992.00;4980925;28;20053;-87
2023/04/20 06:40:52;;;;;;;19.77;12.88;;;;;;;10.68;100.00;99989.50;4980771;28;20035;-89
2023/04/20 06:43:18;;;;;;;21.02;13.00;;;;;;;10.68;100.00;99998.28;4983262;28;20521;-88
2023/04/20 06:45:43;;;;;;;22.80;13.82;;;;;;;10.65;100.00;99998.63;4985674;28;20034;-87
2023/04/20 06:48:10;;;;;;;19.08;12.75;;;;;;;10.73;100.00;100006.53;4981182;28;20055;-87
2023/04/20 06:50:35;;;;;;;19.40;13.25;;;;;;;10.67;100.00;100009.88;4981458;28;20065;-86
2023/04/20 06:53:04;;;;;;;18.83;12.20;;;;;;;10.67;100.00;100004.56;4983420;28;20449;-88
2023/04/20 06:55:32;;;;;;;27.55;13.50;;;;;;;10.74;100.00;100010.81;4983528;28;20027;-90
2023/04/20 06:57:58;;;;;;;23.67;15.35;;;;;;;10.69;100.00;100007.88;4980019;28;20043;-88
2023/04/20 07:00:26;;;;;;;21.42;13.20;;;;;;;10.70;100.00;99996.28;4980227;28;20038;-88
2023/04/20 07:02:52;;;;;;;27.00;14.85;;;;;;;10.69;100.00;99999.94;4978950;28;20034;-89
2023/04/20 07:05:17;;;;;;;22.70;14.48;;;;;;;10.76;100.00;100003.53;4982332;28;20117;-88
2023/04/20 07:07:43;;;;;;;22.33;14.00;;;;;;;10.74;100.00;100008.19;4980771;28;20070;-87
2023/04/20 07:10:11;;;;;;;21.67;14.35;;;;;;;10.71;100.00;100008.53;4979531;28;20069;-88
2023/04/20 07:12:38;;;;;;;27.58;14.50;;;;;;;10.70;100.00;100006.06;4961905;28;20485;-89
2023/04/20 07:15:05;;;;;;;20.75;13.02;;;;;;;10.67;100.00;100007.22;4978896;28;20031;-89
2023/04/20 07:17:31;;;;;;;26.20;14.27;;;;;;;10.64;100.00;100004.13;4977372;28;20049;-88
2023/04/20 07:19:57;;;;;;;20.77;13.65;;;;;;;10.66;100.00;100004.75;4978742;28;20479;-90
2023/04/20 07:22:24;;;;;;;19.13;13.73;;;;;;;10.69;100.00;100009.72;4979258;28;20046;-87
2023/04/20 07:24:50;;;;;;;21.02;13.13;;;;;;;10.75;100.00;100016.97;4980260;28;20030;-89
2023/04/20 07:27:16;;;;;;;21.20;13.45;;;;;;;10.77;100.00;100013.13;4977574;28;20041;-84
2023/04/20 07:29:41;;;;;;;19.45;12.50;;;;;;;11.03;100.00;100022.56;4975583;28;20027;-89
2023/04/20 07:32:07;;;;;;;27.40;12.40;;;;;;;11.17;100.00;100016.50;4959996;28;20462;-88
2023/04/20 07:34:32;;;;;;;18.75;12.80;;;;;;;11.01;100.00;100024.56;4962905;28;20027;-86
2023/04/20 07:36:58;;;;;;;28.05;12.35;;;;;;;10.99;100.00;100029.22;4956374;29;20039;-87
2023/04/20 07:39:27;;;;;;;19.10;11.90;;;;;;;10.89;100.00;100019.69;4958197;29;20046;-88
2023/04/20 07:41:53;;;;;;;19.65;13.38;;;;;;;10.90;100.00;100009.91;4958864;28;20394;-88
2023/04/20 07:44:18;;;;;;;20.15;13.32;;;;;;;10.77;100.00;100021.06;4957084;29;20550;-87
2023/04/20 07:46:44;;;;;;;20.65;13.75;;;;;;;10.78;100.00;100012.13;4960589;28;20098;-87
2023/04/20 07:49:09;;;;;;;24.40;14.60;;;;;;;10.74;100.00;100024.06;4958749;28;20041;-88
2023/04/20 07:51:35;;;;;;;24.30;13.98;;;;;;;10.92;100.00;100015.03;4960398;29;20129;-90
2023/04/20 07:54:00;;;;;;;27.42;15.00;;;;;;;10.87;100.00;100021.66;4960725;28;20028;-87
2023/04/20 07:56:26;;;;;;;29.90;15.13;;;;;;;10.89;100.00;100024.16;4959503;28;20035;-88
2023/04/20 07:58:51;;;;;;;28.83;15.70;;;;;;;10.92;100.00;100028.28;4958574;28;20043;-85
2023/04/20 08:01:21;;;;;;;24.70;15.25;;;;;;;11.02;100.00;100019.09;4957738;29;20059;-89
2023/04/20 08:03:47;;;;;;;26.65;15.88;;;;;;;11.04;100.00;100024.19;4961742;28;20046;-87
2023/04/20 08:06:13;;;;;;;25.98;15.98;;;;;;;11.05;100.00;100024.03;4958864;29;20039;-90
2023/04/20 08:08:38;;;;;;;37.88;17.67;;;;;;;11.10;100.00;100021.66;4959635;29;20066;-89
2023/04/20 08:11:06;;;;;;;31.38;17.55;;;;;;;11.09;100.00;100024.50;4959425;29;20047;-88
2023/04/20 08:13:32;;;;;;;29.65;18.60;;;;;;;10.96;100.00;100025.09;4961612;28;20039;-88
2023/04/20 08:15:58;;;;;;;36.30;18.67;;;;;;;11.05;100.00;100029.34;4959794;29;20034;-87
2023/04/20 08:18:23;;;;;;;37.92;19.67;;;;;;;11.09;100.00;100032.47;4957577;28;20035;-87
2023/04/20 08:20:50;;;;;;;38.58;20.60;;;;;;;10.95;100.00;100028.75;4957412;28;20086;-87
2023/04/20 08:23:15;;;;;;;44.22;19.15;;;;;;;11.13;100.00;100039.06;4960185;28;20040;-86
2023/04/20 08:25:41;;;;;;;35.15;21.35;;;;;;;11.00;100.00;100036.19;4960159;29;20035;-84
2023/04/20 08:28:07;;;;;;;39.03;21.05;;;;;;;11.21;100.00;100039.00;4960643;29;20039;-84
2023/04/20 08:30:32;;;;;;;40.65;21.92;;;;;;;11.14;100.00;100035.41;4958136;28;20030;-87
2023/04/20 08:32:58;;;;;;;41.40;22.02;;;;;;;11.19;100.00;100035.72;4958185;28;20070;-86
2023/04/20 08:35:24;;;;;;;42.78;21.58;;;;;;;11.16;100.00;100030.75;4962622;28;20118;-86
2023/04/20 08:37:50;;;;;;;38.20;20.90;;;;;;;11.19;100.00;100035.72;4961088;29;20155;-86
2023/04/20 08:40:18;;;;;;;34.42;20.38;;;;;;;11.18;100.00;100034.88;4961680;28;20076;-85
2023/04/20 08:42:45;;;;;;;40.17;20.02;;;;;;;11.23;100.00;100042.31;4959038;29;20094;-85
2023/04/20 08:45:11;;;;;;;37.88;20.92;;;;;;;11.41;100.00;100040.16;4959644;28;20087;-86
2023/04/20 08:47:38;;;;;;;38.83;22.17;;;;;;;11.32;100.00;100041.25;4958814;28;20035;-85
2023/04/20 08:50:08;;;;;;;42.88;21.85;;;;;;;11.36;100.00;100048.66;4956508;28;20058;-84
2023/04/20 08:52:34;;;;;;;34.83;20.30;;;;;;;11.58;100.00;100036.34;4956879;29;20031;-86
2023/04/20 08:55:00;;;;;;;36.88;20.75;;;;;;;11.58;100.00;100052.28;4956430;29;20035;-87
2023/04/20 08:57:26;;;;;;;34.60;20.10;;;;;;;11.63;100.00;100044.63;4959266;28;20039;-88
2023/04/20 08:59:59;;;;;;;35.80;20.70;;;;;;;11.62;100.00;100042.97;4963479;29;20124;-87
2023/04/20 09:02:24;;;;;;;41.17;22.52;;;;;;;11.72;100.00;100037.44;4963948;28;20071;-81
2023/04/20 09:05:00;;;;;;;40.85;22.58;;;;;;;11.76;100.00;100050.16;4960871;28;20039;-84
2023/04/20 09:07:25;;;;;;;42.92;23.45;;;;;;;11.75;100.00;100043.19;4963673;28;20494;-87
2023/04/20 09:09:58;;;;;;;39.60;20.52;;;;;;;11.71;100.00;100041.06;4972805;28;20027;-85
2023/04/20 09:12:26;;;;;;;46.28;22.13;;;;;;;11.71;100.00;100046.38;4972776;28;20107;-86
2023/04/20 09:14:52;;;;;;;40.60;23.08;;;;;;;11.78;100.00;100045.50;4973316;28;20418;-85
2023/04/20 09:17:31;;;;;;;41.63;22.58;;;;;;;11.90;100.00;100044.03;4980805;28;20057;-88
2023/04/20 09:19:56;;;;;;;39.63;22.83;;;;;;;11.84;100.00;100050.06;4962778;28;20035;-87
2023/04/20 09:22:33;;;;;;;39.55;23.05;;;;;;;11.95;100.00;100053.28;4961003;28;20089;-86
2023/04/20 09:25:00;;;;;;;37.95;21.77;;;;;;;11.95;100.00;100050.63;4972832;28;20047;-87
2023/04/20 09:27:26;;;;;;;41.80;22.42;;;;;;;12.03;100.00;100051.34;4974162;28;20074;-86
2023/04/20 09:29:59;;;;;;;40.28;22.25;;;;;;;12.07;100.00;100049.16;4977511;28;20046;-88
2023/04/20 09:32:27;;;;;;;38.78;21.58;;;;;;;12.07;100.00;100062.44;4977645;28;20042;-88
2023/04/20 09:34:53;;;;;;;41.50;23.35;;;;;;;12.00;100.00;100061.53;4980177;28;20046;-86
2023/04/20 09:37:21;;;;;;;41.17;22.30;;;;;;;12.14;100.00;100050.91;4979256;28;20043;-90
2023/04/20 09:39:47;;;;;;;39.10;22.42;;;;;;;12.17;100.00;100041.72;4977938;28;20038;-88
2023/04/20 09:42:19;;;;;;;38.83;23.10;;;;;;;12.30;100.00;100050.72;4984445;28;20049;-89
2023/04/20 09:44:45;;;;;;;42.45;24.30;;;;;;;12.38;100.00;100034.69;4983621;28;20101;-88
2023/04/20 09:47:20;;;;;;;39.97;23.60;;;;;;;12.56;100.00;100030.81;4981662;28;20039;-87
2023/04/20 09:49:46;;;;;;;46.42;24.63;;;;;;;12.54;100.00;100048.75;4980434;28;20059;-89
2023/04/20 09:52:17;;;;;;;50.03;23.08;;;;;;;12.67;100.00;100048.91;4980329;28;20054;-88
2023/04/20 09:54:44;;;;;;;38.22;23.20;;;;;;;12.78;100.00;100038.63;4979669;28;20122;-87
2023/04/20 09:57:12;;;;;;;42.53;22.40;;;;;;;12.72;100.00;100051.84;4962100;28;20035;-85
2023/04/20 09:59:40;;;;;;;39.58;23.33;;;;;;;12.81;100.00;100048.06;4978924;28;20042;-86
2023/04/20 10:02:11;;;;;;;41.33;22.83;;;;;;;12.98;100.00;100030.03;4978495;28;20039;-85
2023/04/20 10:04:36;;;;;;;37.60;21.98;;;;;;;13.08;100.00;100027.88;4978471;28;20038;-87
2023/04/20 10:07:05;;;;;;;42.00;22.80;;;;;;;13.08;100.00;100031.38;4960887;28;20047;-86
2023/04/20 10:09:32;;;;;;;37.38;23.20;;;;;;;13.15;100.00;100050.09;4977052;28;20042;-87
2023/04/20 10:12:08;;;;;;;38.47;21.90;;;;;;;13.34;100.00;100025.47;4976837;28;20101;-85
2023/04/20 10:14:34;;;;;;;31.08;20.45;;;;;;;13.41;100.00;100011.22;4976983;28;20034;-86
2023/04/20 10:17:03;;;;;;;35.67;21.10;;;;;;;13.33;100.00;100023.81;4976176;28;20099;-85
2023/04/20 10:19:58;;;;;;;37.35;21.10;;;;;;;13.43;100.00;100024.31;4977684;28;20102;-86
2023/04/20 10:22:40;;;;;;;31.45;20.00;;;;;;;13.55;100.00;100033.44;4983366;28;20054;-86
2023/04/20 10:25:23;;;;;;;23.97;14.73;;;;;;;13.57;100.00;100012.75;4981147;28;20038;-88
2023/04/20 10:28:00;;;;;;;28.73;18.52;;;;;;;13.88;100.00;100017.69;4990979;28;20824;-87
2023/04/20 10:30:29;;;;;;;30.10;19.52;;;;;;;13.99;100.00;100023.28;4983102;28;20059;-88
2023/04/20 10:33:05;;;;;;;26.95;18.02;;;;;;;13.95;100.00;100014.03;4982477;28;20682;-88
2023/04/20 10:35:53;;;;;;;26.52;17.95;;;;;;;14.06;100.00;100019.84;4984806;28;20042;-88
2023/04/20 10:38:34;;;;;;;23.80;16.23;;;;;;;14.08;100.00;100026.63;4980166;28;20031;-87
2023/04/20 10:41:10;;;;;;;26.38;17.63;;;;;;;14.08;100.00;100012.47;4978978;28;20093;-87
2023/04/20 10:43:45;;;;;;;28.00;17.13;;;;;;;14.21;100.00;100028.53;4979909;28;20050;-88
2023/04/20 10:46:22;;;;;;;22.15;15.88;;;;;;;14.05;100.00;100015.53;4990119;28;20053;-87
2023/04/20 10:48:57;;;;;;;22.25;15.13;;;;;;;14.16;100.00;100012.31;4991306;28;20046;-88
2023/04/20 10:51:24;;;;;;;25.08;16.67;;;;;;;14.31;100.00;100002.34;4978132;28;20053;-88
2023/04/20 10:54:07;;;;;;;23.38;16.52;;;;;;;14.35;100.00;100004.44;4992249;28;20077;-87
2023/04/20 10:56:52;;;;;;;23.80;16.58;;;;;;;14.56;100.00;100000.00;4992729;28;20518;-89
2023/04/20 10:59:40;;;;;;;30.48;17.83;;;;;;;14.78;100.00;99996.97;4996009;28;20046;-89
2023/04/20 11:02:23;;;;;;;27.83;16.83;;;;;;;15.40;100.00;99993.16;4969090;28;20047;-88
2023/04/20 11:04:48;;;;;;;26.30;15.95;;;;;;;16.06;100.00;99979.69;4980327;28;20042;-88
2023/04/20 11:07:14;;;;;;;21.13;14.50;;;;;;;16.61;100.00;100013.03;4979132;28;20066;-89
2023/04/20 11:09:41;;;;;;;18.83;14.45;;;;;;;16.60;100.00;99985.47;4980373;28;20034;-88
2023/04/20 11:12:14;;;;;;;20.08;15.00;;;;;;;16.31;100.00;99996.66;4977952;28;20403;-88
2023/04/20 11:14:52;;;;;;;20.17;14.88;;;;;;;15.82;100.00;100002.56;4978364;28;20101;-88
2023/04/20 11:17:17;;;;;;;18.35;13.45;;;;;;;15.67;100.00;99983.28;4978496;28;20125;-87